Time;durP1;ratioP1;P1;durP2;ratioP2;P2;SDS_P1;SDS_P2;PMS_P1;PMS_P2;Temp;Humidity;BMP_temperature;BMP_pressure;BME280_temperature;BME280_humidity;BME280_pressure;Samples;Min_cycle;Max_cycle;Signal;HPM_P1;HPM_P2
2022/08/14 00:00:17;;;;;;;3.70;3.50;;;19.60;75.70;;;;;;5008937;28;20555;-59
2022/08/14 00:02:44;;;;;;;4.68;4.28;;;19.60;75.00;;;;;;5010696;28;20222;-59
2022/08/14 00:05:12;;;;;;;4.00;3.70;;;19.40;75.50;;;;;;5011676;28;20182;-60
2022/08/14 00:07:38;;;;;;;4.38;3.97;;;19.40;75.70;;;;;;5008457;28;20245;-60
2022/08/14 00:10:06;;;;;;;4.00;3.70;;;19.40;76.20;;;;;;5008422;28;20555;-59
2022/08/14 00:12:34;;;;;;;4.75;3.78;;;19.40;76.50;;;;;;5008061;28;20179;-62
2022/08/14 00:15:04;;;;;;;4.03;3.72;;;19.40;76.80;;;;;;5010549;28;20206;-61
2022/08/14 00:17:29;;;;;;;4.10;3.80;;;19.40;77.30;;;;;;5006809;28;20195;-60
2022/08/14 00:19:55;;;;;;;4.47;4.17;;;19.30;77.40;;;;;;5010391;28;21121;-60
2022/08/14 00:22:21;;;;;;;4.30;4.00;;;19.50;78.10;;;;;;5009960;28;20183;-60
2022/08/14 00:24:47;;;;;;;3.95;3.47;;;19.20;78.30;;;;;;5010344;28;20273;-60
2022/08/14 00:27:12;;;;;;;4.20;3.90;;;19.20;78.60;;;;;;5014286;28;20262;-60
2022/08/14 00:29:38;;;;;;;4.23;3.93;;;19.00;78.70;;;;;;5008949;28;20199;-60
2022/08/14 00:32:04;;;;;;;4.10;3.80;;;19.00;79.70;;;;;;5011398;28;20183;-61
2022/08/14 00:34:29;;;;;;;3.88;3.58;;;18.90;80.00;;;;;;5010922;28;20189;-60
2022/08/14 00:36:55;;;;;;;4.73;4.30;;;18.90;80.30;;;;;;5008470;28;20185;-61
2022/08/14 00:39:22;;;;;;;4.20;3.90;;;18.90;80.70;;;;;;5005830;28;20672;-61
2022/08/14 00:41:48;;;;;;;4.40;4.10;;;18.80;81.60;;;;;;5010408;28;20279;-61
2022/08/14 00:44:15;;;;;;;4.53;4.13;;;18.80;82.80;;;;;;5009143;28;20710;-61
2022/08/14 00:46:41;;;;;;;4.35;4.05;;;18.70;82.40;;;;;;5010569;28;20428;-62
2022/08/14 00:49:08;;;;;;;3.83;3.53;;;18.60;82.70;;;;;;5005046;28;20200;-61
2022/08/14 00:51:34;;;;;;;4.13;3.72;;;18.60;83.00;;;;;;5009918;28;20188;-61
2022/08/14 00:54:01;;;;;;;4.50;4.10;;;18.60;83.20;;;;;;5010602;28;20660;-61
2022/08/14 00:56:27;;;;;;;4.00;3.80;;;18.60;83.60;;;;;;5009626;28;20183;-61
2022/08/14 00:58:54;;;;;;;4.57;4.28;;;18.50;84.00;;;;;;5009517;28;20234;-62
2022/08/14 01:01:20;;;;;;;4.57;4.18;;;18.50;84.40;;;;;;5009649;28;20706;-61
2022/08/14 01:03:46;;;;;;;4.53;4.22;;;18.50;84.60;;;;;;5009331;28;20190;-61
2022/08/14 01:06:16;;;;;;;3.77;3.53;;;18.50;84.70;;;;;;5013341;28;20183;-61
2022/08/14 01:08:43;;;;;;;3.67;3.47;;;18.40;85.00;;;;;;5009582;28;20203;-61
2022/08/14 01:11:14;;;;;;;4.60;4.30;;;18.40;85.60;;;;;;5010768;28;20178;-61
2022/08/14 01:13:42;;;;;;;3.90;3.60;;;18.30;86.10;;;;;;5008850;28;20195;-60
2022/08/14 01:16:11;;;;;;;5.20;3.85;;;18.20;86.50;;;;;;5007994;28;20189;-60
2022/08/14 01:21:30;;;;;;;4.30;3.90;;;18.10;86.90;;;;;;5008752;28;20253;-61
2022/08/14 01:23:57;;;;;;;4.70;4.25;;;18.20;87.20;;;;;;5009384;28;20269;-61
2022/08/14 01:26:24;;;;;;;3.80;3.60;;;18.20;87.00;;;;;;5010055;28;20178;-62
2022/08/14 01:28:54;;;;;;;3.95;3.65;;;18.20;87.10;;;;;;5007555;28;20551;-61
2022/08/14 01:31:23;;;;;;;3.70;3.40;;;18.30;87.30;;;;;;5007493;28;20521;-61
2022/08/14 01:33:50;;;;;;;4.07;3.70;;;18.30;87.20;;;;;;5009701;28;20233;-61
2022/08/14 01:36:19;;;;;;;4.07;3.78;;;18.30;87.00;;;;;;5006981;28;20192;-61
2022/08/14 01:38:50;;;;;;;4.13;3.72;;;18.30;87.20;;;;;;5007557;28;20220;-61
2022/08/14 01:41:20;;;;;;;3.80;3.60;;;18.20;88.10;;;;;;5007369;28;20219;-61
2022/08/14 01:43:48;;;;;;;4.07;3.72;;;18.20;88.20;;;;;;5010158;28;20182;-61
2022/08/14 01:46:19;;;;;;;4.85;4.43;;;18.20;88.50;;;;;;5004873;28;20178;-61
2022/08/14 01:48:45;;;;;;;4.20;3.90;;;18.20;88.50;;;;;;5009973;28;20562;-62
2022/08/14 01:51:13;;;;;;;4.07;3.67;;;18.20;88.40;;;;;;5009905;28;20265;-61
2022/08/14 01:53:44;;;;;;;4.03;3.72;;;18.20;88.20;;;;;;5008571;28;20231;-61
2022/08/14 01:56:10;;;;;;;3.97;3.67;;;18.20;88.30;;;;;;5009732;28;20258;-61
2022/08/14 01:58:37;;;;;;;4.50;3.95;;;18.20;88.80;;;;;;5007823;28;20318;-61
2022/08/14 02:01:03;;;;;;;3.95;3.65;;;18.10;88.80;;;;;;5007033;28;20233;-62
2022/08/14 02:03:34;;;;;;;4.07;3.60;;;18.20;89.20;;;;;;5010559;28;20186;-62
2022/08/14 02:06:01;;;;;;;4.47;4.18;;;18.10;89.00;;;;;;5009569;28;20179;-61
2022/08/14 02:08:29;;;;;;;4.35;4.05;;;18.20;89.20;;;;;;5009451;28;20646;-60
2022/08/14 02:11:15;;;;;;;4.20;3.90;;;18.20;89.20;;;;;;5007480;28;20190;-62
2022/08/14 02:13:42;;;;;;;4.80;4.40;;;18.10;89.30;;;;;;5010249;28;20270;-58
2022/08/14 02:16:10;;;;;;;3.75;3.45;;;18.00;89.80;;;;;;5009352;28;20219;-62
2022/08/14 02:18:36;;;;;;;3.92;3.63;;;18.00;90.00;;;;;;5008107;28;20236;-62
2022/08/14 02:21:03;;;;;;;4.10;3.90;;;18.00;90.50;;;;;;5005604;28;20214;-61
2022/08/14 02:23:30;;;;;;;4.28;3.97;;;18.00;90.20;;;;;;5004011;28;20206;-62
2022/08/14 02:25:58;;;;;;;3.85;3.55;;;17.90;90.40;;;;;;5011320;28;20186;-62
2022/08/14 02:28:24;;;;;;;5.00;4.13;;;17.80;90.50;;;;;;5011099;28;20229;-59
2022/08/14 02:30:50;;;;;;;4.35;3.70;;;17.80;90.50;;;;;;5009550;28;20191;-62
2022/08/14 02:33:17;;;;;;;3.97;3.75;;;17.80;90.50;;;;;;5013398;28;20727;-61
2022/08/14 02:35:43;;;;;;;3.83;3.58;;;17.80;90.50;;;;;;5007984;28;20192;-61
2022/08/14 02:38:09;;;;;;;4.10;3.80;;;17.80;90.70;;;;;;5010226;28;20640;-60
2022/08/14 02:40:36;;;;;;;4.78;3.70;;;17.80;91.00;;;;;;5012430;28;20556;-60
2022/08/14 02:43:03;;;;;;;4.35;4.03;;;17.80;91.50;;;;;;5010315;28;20175;-59
2022/08/14 02:45:33;;;;;;;4.03;3.72;;;17.70;91.50;;;;;;5005669;28;20309;-60
2022/08/14 02:48:05;;;;;;;4.50;4.20;;;17.60;91.30;;;;;;5011668;28;20203;-61
2022/08/14 02:50:31;;;;;;;4.57;4.18;;;17.70;91.40;;;;;;5012872;28;20220;-63
2022/08/14 02:52:57;;;;;;;4.27;3.97;;;17.70;91.60;;;;;;5012439;28;20270;-59
2022/08/14 02:55:22;;;;;;;3.83;3.63;;;17.70;91.50;;;;;;5010974;28;20199;-59
2022/08/14 02:57:53;;;;;;;4.80;4.40;;;17.70;91.80;;;;;;5011333;28;20222;-59
2022/08/14 03:00:20;;;;;;;5.15;4.00;;;17.50;91.80;;;;;;5011642;28;20207;-61
2022/08/14 03:02:46;;;;;;;4.75;4.40;;;18.00;92.00;;;;;;5011486;28;20217;-61
2022/08/14 03:05:11;;;;;;;4.27;3.97;;;17.50;91.90;;;;;;5011870;28;20877;-60
2022/08/14 03:07:38;;;;;;;4.50;4.20;;;17.40;91.90;;;;;;5010847;28;20175;-60
2022/08/14 03:10:05;;;;;;;4.47;4.07;;;17.40;92.20;;;;;;5012623;28;20190;-59
2022/08/14 03:12:31;;;;;;;4.97;4.15;;;17.40;92.40;;;;;;5008616;28;20206;-59
2022/08/14 03:14:57;;;;;;;4.40;4.10;;;17.50;92.40;;;;;;5011182;28;20624;-60
2022/08/14 03:17:23;;;;;;;5.95;4.40;;;17.40;92.40;;;;;;5012681;28;20183;-60
2022/08/14 03:19:51;;;;;;;4.03;3.73;;;17.40;92.50;;;;;;5012071;28;20214;-60
2022/08/14 03:22:16;;;;;;;4.78;4.30;;;17.40;92.50;;;;;;5010940;28;20859;-60
2022/08/14 03:24:42;;;;;;;4.13;3.90;;;17.50;92.80;;;;;;5012903;28;20240;-60
2022/08/14 03:27:12;;;;;;;4.80;4.50;;;17.30;93.00;;;;;;5007804;28;20179;-61
2022/08/14 03:29:39;;;;;;;4.47;4.15;;;17.70;93.40;;;;;;5011557;28;20199;-61
2022/08/14 03:32:05;;;;;;;5.60;4.28;;;17.20;93.20;;;;;;5011286;28;20181;-59
2022/08/14 03:34:31;;;;;;;4.90;4.50;;;17.40;93.50;;;;;;5013040;28;20183;-59
2022/08/14 03:36:57;;;;;;;4.47;4.10;;;17.10;93.60;;;;;;5009708;28;20485;-60
2022/08/14 03:39:23;;;;;;;5.53;4.80;;;17.00;93.70;;;;;;5011221;28;20234;-61
2022/08/14 03:41:54;;;;;;;4.78;4.38;;;17.20;94.10;;;;;;5011462;28;20239;-60
2022/08/14 03:44:21;;;;;;;4.40;4.10;;;17.10;94.30;;;;;;5007670;28;20183;-60
2022/08/14 03:46:47;;;;;;;4.80;4.40;;;17.10;94.30;;;;;;5006209;28;20183;-60
2022/08/14 03:49:12;;;;;;;4.93;4.53;;;17.00;94.10;;;;;;5011851;28;20545;-59
2022/08/14 03:51:39;;;;;;;4.50;4.20;;;16.90;94.10;;;;;;5010105;28;20260;-59
2022/08/14 03:54:07;;;;;;;4.40;4.10;;;17.00;94.40;;;;;;5011971;28;20591;-59
2022/08/14 03:56:35;;;;;;;4.65;4.30;;;17.00;94.30;;;;;;5011060;28;20183;-59
2022/08/14 03:59:06;;;;;;;4.60;4.20;;;17.00;94.10;;;;;;5006078;28;20245;-59
2022/08/14 04:01:32;;;;;;;4.95;4.65;;;17.00;94.30;;;;;;5005087;28;20217;-60
2022/08/14 04:04:01;;;;;;;4.72;4.35;;;17.00;94.30;;;;;;5009371;28;20183;-59
2022/08/14 04:06:27;;;;;;;4.65;4.25;;;17.00;94.30;;;;;;5011141;28;20179;-60
2022/08/14 04:08:53;;;;;;;4.32;4.03;;;17.00;94.40;;;;;;5011436;28;20714;-60
2022/08/14 04:11:19;;;;;;;4.93;4.53;;;16.80;94.40;;;;;;5012051;28;20187;-60
2022/08/14 04:13:47;;;;;;;4.53;4.13;;;16.70;94.30;;;;;;5010992;28;20520;-60
2022/08/14 04:16:17;;;;;;;4.75;4.40;;;16.90;94.50;;;;;;5009803;28;20802;-60
2022/08/14 04:18:49;;;;;;;4.80;4.40;;;16.60;94.60;;;;;;5009157;28;20207;-59
2022/08/14 04:21:16;;;;;;;4.97;4.53;;;16.80;94.50;;;;;;5009864;28;20589;-60
2022/08/14 04:23:44;;;;;;;6.85;4.80;;;16.90;94.60;;;;;;5009936;28;20233;-59
2022/08/14 04:26:13;;;;;;;4.60;4.30;;;16.90;94.50;;;;;;5013490;28;20186;-59
2022/08/14 04:28:40;;;;;;;4.68;4.38;;;17.00;94.60;;;;;;5009749;28;20203;-59
2022/08/14 04:31:07;;;;;;;4.45;4.05;;;16.90;94.90;;;;;;5010742;28;20190;-62
2022/08/14 04:33:33;;;;;;;4.60;4.30;;;17.00;94.90;;;;;;5002607;28;20183;-59
2022/08/14 04:35:58;;;;;;;4.20;3.90;;;16.90;94.80;;;;;;5010907;28;20245;-61
2022/08/14 04:43:53;;;;;;;4.18;3.88;;;16.90;95.00;;;;;;5008763;28;20585;-60
2022/08/14 04:46:20;;;;;;;5.67;4.50;;;17.10;95.20;;;;;;5009176;28;20187;-59
2022/08/14 04:48:47;;;;;;;4.47;4.00;;;16.80;94.70;;;;;;5009711;28;20215;-60
2022/08/14 04:51:15;;;;;;;5.95;4.35;;;17.00;94.80;;;;;;5004621;28;20193;-61
2022/08/14 04:53:43;;;;;;;5.15;4.15;;;17.00;94.90;;;;;;5009000;28;20203;-60
2022/08/14 04:56:21;;;;;;;4.30;4.00;;;17.20;95.00;;;;;;5010238;28;20218;-60
2022/08/14 04:58:54;;;;;;;4.63;4.22;;;17.10;94.60;;;;;;5010015;28;20293;-61
2022/08/14 05:01:20;;;;;;;5.00;4.57;;;17.10;94.60;;;;;;5009170;28;20210;-60
2022/08/14 05:03:46;;;;;;;6.20;4.70;;;17.20;94.60;;;;;;5009746;28;20265;-60
2022/08/14 05:06:12;;;;;;;4.32;4.03;;;17.40;94.70;;;;;;5009371;28;20198;-60
2022/08/14 05:08:39;;;;;;;5.15;4.75;;;17.10;94.40;;;;;;5008548;28;20264;-60
2022/08/14 05:11:06;;;;;;;9.82;4.80;;;17.20;94.30;;;;;;5008852;28;20559;-59
2022/08/14 05:13:33;;;;;;;4.68;4.28;;;17.30;94.30;;;;;;5009070;28;20668;-58
2022/08/14 05:16:00;;;;;;;4.50;4.20;;;17.30;94.20;;;;;;5007140;28;20190;-61
2022/08/14 05:18:33;;;;;;;4.85;4.40;;;17.40;94.20;;;;;;5009692;28;20199;-62
2022/08/14 05:21:00;;;;;;;4.90;4.38;;;17.60;93.80;;;;;;5009133;28;20265;-61
2022/08/14 05:23:30;;;;;;;4.70;3.90;;;17.80;93.40;;;;;;5006905;28;20711;-60
2022/08/14 05:26:02;;;;;;;3.90;3.60;;;18.00;93.10;;;;;;5009372;28;20186;-63
2022/08/14 05:28:30;;;;;;;4.75;4.00;;;18.10;92.90;;;;;;5013476;28;20206;-63
2022/08/14 05:31:05;;;;;;;4.47;4.07;;;18.10;92.80;;;;;;5005933;28;20269;-63
2022/08/14 05:33:33;;;;;;;4.57;4.28;;;18.60;93.10;;;;;;5007424;28;20183;-61
2022/08/14 05:36:01;;;;;;;4.40;4.10;;;18.70;92.60;;;;;;5009255;28;20285;-60
2022/08/14 05:38:33;;;;;;;5.68;4.78;;;18.40;92.20;;;;;;5006013;28;20237;-61
2022/08/14 05:41:07;;;;;;;4.90;4.50;;;18.50;92.30;;;;;;5009281;28;20214;-60
2022/08/14 05:43:32;;;;;;;4.97;4.35;;;18.50;92.40;;;;;;5009067;28;20185;-62
2022/08/14 05:45:59;;;;;;;4.73;4.30;;;18.40;92.30;;;;;;5008456;28;20191;-61
2022/08/14 05:48:25;;;;;;;4.30;4.00;;;18.50;92.10;;;;;;5003914;28;20750;-62
2022/08/14 05:50:53;;;;;;;5.40;4.47;;;18.50;92.00;;;;;;5008597;28;20183;-61
2022/08/14 05:53:20;;;;;;;4.82;4.43;;;18.70;91.90;;;;;;5009231;28;20543;-61
2022/08/14 05:55:45;;;;;;;4.25;3.95;;;18.80;91.60;;;;;;5008288;28;20190;-52
2022/08/14 05:58:11;;;;;;;4.43;4.13;;;19.10;91.60;;;;;;5009461;28;20203;-53
2022/08/14 06:00:42;;;;;;;4.93;4.53;;;19.30;90.90;;;;;;5007771;28;20238;-54
2022/08/14 06:03:15;;;;;;;5.30;4.55;;;19.40;90.70;;;;;;5013824;28;20961;-53
2022/08/14 06:05:50;;;;;;;4.60;4.30;;;19.80;90.40;;;;;;5010914;28;20670;-65
2022/08/14 06:08:23;;;;;;;4.50;4.20;;;19.60;90.30;;;;;;5011248;28;20205;-65
2022/08/14 06:10:51;;;;;;;5.65;4.45;;;19.60;90.10;;;;;;5009744;28;20198;-64
2022/08/14 06:13:17;;;;;;;5.03;4.53;;;19.70;89.60;;;;;;5011416;28;20187;-64
2022/08/14 06:15:44;;;;;;;5.18;4.78;;;19.70;89.80;;;;;;5013037;28;20237;-65
2022/08/14 06:18:10;;;;;;;4.63;4.22;;;19.90;89.80;;;;;;5007527;28;20707;-64
2022/08/14 06:20:37;;;;;;;4.78;4.38;;;20.10;89.80;;;;;;5006894;28;20302;-64
2022/08/14 06:23:03;;;;;;;4.80;4.50;;;20.10;89.30;;;;;;5010829;28;20179;-64
2022/08/14 06:25:29;;;;;;;5.00;4.60;;;20.20;88.80;;;;;;5014089;28;20668;-64
2022/08/14 06:27:55;;;;;;;4.90;4.20;;;20.20;88.40;;;;;;5008795;28;20298;-64
2022/08/14 06:30:24;;;;;;;5.00;4.70;;;20.30;87.90;;;;;;5012522;28;20187;-64
2022/08/14 06:32:49;;;;;;;5.00;4.60;;;20.40;87.90;;;;;;5012166;28;20210;-64
2022/08/14 06:35:22;;;;;;;4.27;3.97;;;20.60;86.50;;;;;;5009414;28;20187;-64
2022/08/14 06:37:52;;;;;;;4.53;4.10;;;20.50;86.40;;;;;;5013563;28;20206;-64
2022/08/14 06:40:22;;;;;;;4.53;4.22;;;20.70;87.30;;;;;;5010758;28;20209;-64
2022/08/14 06:42:47;;;;;;;5.00;4.60;;;20.90;85.50;;;;;;5007152;28;20656;-64
2022/08/14 06:45:13;;;;;;;4.60;4.30;;;21.00;85.40;;;;;;5007718;28;20179;-64
2022/08/14 06:47:42;;;;;;;4.33;4.03;;;21.10;85.10;;;;;;5009916;28;20305;-64
2022/08/14 06:50:10;;;;;;;4.50;3.88;;;21.00;83.40;;;;;;5012279;28;20457;-64
2022/08/14 06:52:37;;;;;;;5.00;4.60;;;21.30;83.50;;;;;;5011997;28;20186;-64
2022/08/14 06:55:05;;;;;;;4.20;3.80;;;21.60;83.10;;;;;;5011457;28;20194;-64
2022/08/14 06:57:39;;;;;;;4.37;3.97;;;21.80;82.30;;;;;;5012891;28;20931;-63
2022/08/14 07:00:07;;;;;;;4.33;4.00;;;21.80;80.30;;;;;;5008252;28;20633;-65
2022/08/14 07:08:03;;;;;;;4.43;4.13;;;22.70;77.40;;;;;;5008344;28;21009;-63
2022/08/14 07:10:29;;;;;;;3.97;3.70;;;23.10;76.20;;;;;;5010644;28;20504;-65
2022/08/14 07:12:54;;;;;;;4.30;4.00;;;24.20;70.80;;;;;;5006314;28;20560;-65
2022/08/14 07:15:20;;;;;;;3.60;3.40;;;26.50;64.20;;;;;;5010471;28;20523;-62
2022/08/14 07:17:47;;;;;;;5.20;3.30;;;28.70;57.10;;;;;;5009591;28;20215;-62
2022/08/14 07:20:13;;;;;;;4.10;3.77;;;31.70;51.50;;;;;;5011354;28;20206;-62
2022/08/14 07:22:39;;;;;;;4.33;4.07;;;33.60;45.80;;;;;;5006285;28;20488;-62
2022/08/14 07:25:05;;;;;;;4.30;4.00;;;35.30;42.10;;;;;;5011060;28;20600;-63
2022/08/14 07:27:30;;;;;;;3.93;3.73;;;37.10;39.00;;;;;;5009111;28;20210;-63
2022/08/14 07:29:56;;;;;;;4.40;4.00;;;38.80;35.90;;;;;;5011510;28;20481;-63
2022/08/14 07:32:21;;;;;;;3.90;3.67;;;40.00;33.00;;;;;;5009888;28;20179;-63
2022/08/14 07:34:47;;;;;;;3.70;3.40;;;40.60;30.30;;;;;;5010188;28;20422;-64
2022/08/14 07:37:13;;;;;;;3.60;3.40;;;41.00;30.40;;;;;;5014358;28;20565;-63
2022/08/14 07:39:38;;;;;;;4.23;3.93;;;42.70;29.10;;;;;;5011481;28;20194;-63
2022/08/14 07:42:05;;;;;;;4.30;4.00;;;40.90;28.00;;;;;;5008995;28;20195;-63
2022/08/14 07:44:30;;;;;;;4.30;3.90;;;41.70;28.60;;;;;;5010564;28;20191;-63
2022/08/14 07:46:56;;;;;;;4.07;3.50;;;41.00;28.50;;;;;;5007172;28;20941;-63
2022/08/14 07:49:21;;;;;;;3.70;3.50;;;42.30;28.60;;;;;;5008486;28;20207;-64
2022/08/14 07:51:47;;;;;;;4.07;3.77;;;43.90;27.10;;;;;;5007480;28;20191;-64
2022/08/14 07:54:15;;;;;;;3.83;3.63;;;44.90;25.90;;;;;;5008160;28;20183;-65
2022/08/14 07:56:41;;;;;;;3.67;3.47;;;45.30;25.00;;;;;;5007662;28;20186;-65
2022/08/14 07:59:06;;;;;;;3.30;3.10;;;45.40;24.30;;;;;;5005718;28;20469;-64
2022/08/14 08:01:33;;;;;;;3.67;3.47;;;45.30;24.40;;;;;;5005383;28;20621;-65
2022/08/14 08:04:02;;;;;;;4.00;3.70;;;44.40;24.80;;;;;;5009576;28;20188;-64
2022/08/14 08:06:28;;;;;;;3.93;3.63;;;44.20;24.40;;;;;;5008981;28;20529;-64
2022/08/14 08:08:58;;;;;;;4.13;3.73;;;45.30;24.40;;;;;;5009808;28;20473;-65
2022/08/14 08:11:26;;;;;;;3.30;3.10;;;43.20;24.20;;;;;;5010743;28;20437;-65
2022/08/14 08:13:54;;;;;;;3.70;3.50;;;42.40;25.40;;;;;;5010831;28;20467;-65
2022/08/14 08:16:22;;;;;;;3.40;3.20;;;41.70;25.40;;;;;;5009167;28;20464;-65
2022/08/14 08:18:49;;;;;;;2.90;2.80;;;41.30;25.50;;;;;;5011045;28;20498;-65
2022/08/14 08:21:15;;;;;;;3.23;3.03;;;41.60;25.40;;;;;;5009613;28;20466;-65
2022/08/14 08:23:40;;;;;;;3.47;3.03;;;42.30;25.40;;;;;;5002086;28;20453;-64
2022/08/14 08:26:06;;;;;;;2.83;2.73;;;42.90;24.90;;;;;;5009562;28;20187;-64
2022/08/14 08:28:32;;;;;;;3.03;2.83;;;42.70;24.80;;;;;;5001239;28;20215;-64
2022/08/14 08:31:04;;;;;;;3.27;2.97;;;43.30;24.50;;;;;;5009058;28;20273;-64
2022/08/14 08:33:32;;;;;;;3.10;3.00;;;42.00;24.40;;;;;;5009545;28;20873;-64
2022/08/14 08:36:06;;;;;;;3.00;2.80;;;41.70;24.80;;;;;;5008103;28;21037;-64
2022/08/14 08:38:32;;;;;;;4.10;2.83;;;41.30;25.50;;;;;;5009433;28;20481;-65
2022/08/14 08:41:00;;;;;;;3.07;2.90;;;42.20;25.00;;;;;;5002622;28;20475;-68
2022/08/14 08:43:33;;;;;;;3.07;2.80;;;42.20;24.70;;;;;;5009778;28;20234;-69
2022/08/14 08:46:10;;;;;;;2.70;2.60;;;42.60;24.50;;;;;;5007318;28;21046;-68
2022/08/14 08:48:50;;;;;;;3.43;3.20;;;43.20;24.30;;;;;;5010707;28;20465;-69
2022/08/14 08:51:37;;;;;;;2.90;2.80;;;43.80;23.60;;;;;;5010773;28;20441;-71
2022/08/14 08:54:06;;;;;;;2.73;2.63;;;43.20;23.30;;;;;;5000870;28;20449;-67
2022/08/14 08:56:46;;;;;;;3.20;3.00;;;43.30;23.60;;;;;;5003138;28;20508;-70
2022/08/14 08:59:16;;;;;;;8.10;3.27;;;43.10;23.60;;;;;;5006933;28;20516;-68
2022/08/14 09:01:46;;;;;;;3.10;2.77;;;43.50;23.10;;;;;;5008902;28;20484;-68
2022/08/14 09:04:13;;;;;;;2.70;2.60;;;42.70;23.40;;;;;;5009111;28;20449;-68
2022/08/14 09:06:49;;;;;;;3.00;2.80;;;43.20;23.40;;;;;;5001451;28;20442;-67
2022/08/14 09:09:28;;;;;;;3.30;3.10;;;43.00;23.10;;;;;;5002758;28;20457;-67
2022/08/14 09:11:56;;;;;;;3.47;3.27;;;42.00;23.80;;;;;;5006244;28;20460;-68
2022/08/14 09:14:23;;;;;;;3.90;3.60;;;41.80;23.90;;;;;;5008750;28;20452;-66
2022/08/14 09:16:50;;;;;;;3.30;3.07;;;41.50;24.10;;;;;;5008667;28;20819;-65
2022/08/14 09:19:16;;;;;;;3.23;3.03;;;40.80;24.70;;;;;;5010301;28;20473;-66
2022/08/14 09:21:42;;;;;;;3.83;3.53;;;41.00;24.90;;;;;;5009431;28;20481;-72
2022/08/14 09:24:08;;;;;;;3.27;3.07;;;40.70;25.40;;;;;;5007702;28;20808;-72
2022/08/14 09:26:35;;;;;;;3.40;3.10;;;40.70;25.10;;;;;;5008887;28;20188;-69
2022/08/14 09:29:02;;;;;;;3.73;3.43;;;41.00;25.10;;;;;;5004216;28;20966;-70
2022/08/14 09:31:29;;;;;;;4.37;4.17;;;41.50;24.90;;;;;;5010202;28;20442;-66
2022/08/14 09:34:02;;;;;;;3.80;3.60;;;40.50;25.60;;;;;;5010554;28;20441;-68
2022/08/14 09:36:39;;;;;;;4.20;3.80;;;39.50;26.30;;;;;;5008311;28;20507;-66
2022/08/14 09:39:33;;;;;;;3.83;3.53;;;38.80;27.10;;;;;;5002763;28;20449;-68
2022/08/14 09:42:32;;;;;;;3.97;3.67;;;37.50;28.20;;;;;;5008327;28;20977;-67
2022/08/14 09:45:04;;;;;;;3.70;3.37;;;36.20;28.90;;;;;;5009151;28;20457;-66
2022/08/14 09:47:42;;;;;;;3.90;3.70;;;35.80;30.20;;;;;;5002664;28;20439;-66
2022/08/14 09:50:19;;;;;;;4.00;3.70;;;34.50;31.60;;;;;;5016000;28;20524;-69
2022/08/14 09:52:53;;;;;;;3.93;3.63;;;33.40;32.10;;;;;;5009966;28;20433;-73
2022/08/14 09:55:21;;;;;;;3.50;3.30;;;33.50;32.40;;;;;;5009181;28;20438;-70
2022/08/14 09:57:49;;;;;;;4.10;3.80;;;33.50;32.70;;;;;;5007184;28;20465;-67
2022/08/14 10:00:17;;;;;;;4.17;3.87;;;33.30;32.60;;;;;;5015406;28;20483;-68
2022/08/14 10:03:01;;;;;;;3.90;3.70;;;33.70;32.70;;;;;;5009594;28;20464;-67
2022/08/14 10:05:30;;;;;;;3.93;3.73;;;34.60;31.80;;;;;;5009292;28;20537;-68
2022/08/14 10:07:56;;;;;;;3.90;3.60;;;34.80;30.50;;;;;;5001429;28;21029;-68
2022/08/14 10:10:39;;;;;;;3.97;3.67;;;35.20;30.40;;;;;;5008106;28;21048;-68
2022/08/14 10:13:20;;;;;;;4.30;4.00;;;34.50;31.20;;;;;;5002555;28;20480;-69
2022/08/14 10:15:50;;;;;;;3.57;3.37;;;34.00;32.10;;;;;;5011455;28;20533;-68
2022/08/14 10:18:17;;;;;;;3.67;3.47;;;33.70;32.80;;;;;;5001910;28;20500;-68
2022/08/14 10:20:59;;;;;;;4.20;3.90;;;33.30;33.20;;;;;;5007558;28;20514;-70
2022/08/14 10:23:28;;;;;;;4.60;4.30;;;32.70;33.40;;;;;;5007812;28;20856;-76
2022/08/14 10:26:04;;;;;;;3.77;3.57;;;32.00;34.20;;;;;;5010096;28;20922;-76
2022/08/14 10:28:43;;;;;;;3.60;3.40;;;31.60;35.20;;;;;;5005815;28;20486;-74
2022/08/14 10:31:31;;;;;;;4.20;3.90;;;31.40;35.70;;;;;;5009239;28;21025;-72
2022/08/14 10:34:08;;;;;;;4.80;4.40;;;31.40;36.20;;;;;;5006614;28;20449;-72
2022/08/14 10:36:37;;;;;;;4.07;3.87;;;31.30;35.80;;;;;;5000721;28;20909;-72
2022/08/14 10:39:19;;;;;;;5.50;4.03;;;31.20;35.60;;;;;;5001852;28;20467;-74
2022/08/14 10:41:46;;;;;;;4.20;3.90;;;31.00;36.00;;;;;;5007593;28;20974;-72
2022/08/14 10:44:20;;;;;;;4.17;3.93;;;30.90;35.30;;;;;;5008712;28;20434;-74
2022/08/14 10:47:01;;;;;;;4.13;3.93;;;30.90;36.10;;;;;;5008710;28;20478;-74
2022/08/14 10:49:27;;;;;;;4.67;4.37;;;30.80;36.80;;;;;;5007399;28;21098;-73
2022/08/14 10:52:04;;;;;;;4.97;4.57;;;30.80;37.00;;;;;;5010521;28;20605;-73
2022/08/14 10:54:42;;;;;;;3.90;3.60;;;30.70;37.00;;;;;;5011946;28;20443;-72
2022/08/14 10:57:24;;;;;;;4.80;4.50;;;30.80;36.80;;;;;;5010190;28;20435;-73
2022/08/14 10:59:59;;;;;;;3.90;3.70;;;30.80;36.20;;;;;;5007245;28;20950;-72
2022/08/14 11:02:31;;;;;;;5.10;4.70;;;30.80;36.30;;;;;;5009592;28;20612;-74
2022/08/14 11:05:03;;;;;;;4.67;4.27;;;30.70;36.90;;;;;;5009449;28;20484;-73
2022/08/14 11:07:30;;;;;;;4.40;4.10;;;30.80;37.10;;;;;;5007050;28;20466;-72
2022/08/14 11:09:57;;;;;;;3.90;3.70;;;30.90;36.60;;;;;;5018449;28;20433;-75
2022/08/14 11:12:25;;;;;;;4.67;4.37;;;30.90;36.80;;;;;;5012227;28;20793;-72
2022/08/14 11:14:54;;;;;;;4.13;3.83;;;30.90;36.20;;;;;;5012511;28;20449;-72
2022/08/14 11:17:19;;;;;;;4.27;3.97;;;30.90;35.90;;;;;;5010653;28;20463;-76
2022/08/14 11:19:47;;;;;;;4.33;4.00;;;30.90;36.00;;;;;;5013787;28;21493;-72
2022/08/14 11:22:15;;;;;;;4.57;4.27;;;31.00;36.10;;;;;;5012596;28;20666;-74
2022/08/14 11:24:43;;;;;;;4.40;4.10;;;31.00;36.20;;;;;;5008286;28;20438;-73
2022/08/14 11:27:10;;;;;;;4.60;4.30;;;31.00;36.00;;;;;;5013088;28;20431;-74
2022/08/14 11:29:39;;;;;;;4.80;4.40;;;31.10;36.00;;;;;;5011681;28;20516;-72
2022/08/14 11:32:06;;;;;;;4.80;4.50;;;31.20;36.30;;;;;;5015823;28;20445;-72
2022/08/14 11:34:36;;;;;;;4.73;4.37;;;31.20;36.00;;;;;;5012099;28;20512;-72
2022/08/14 11:37:09;;;;;;;4.30;4.00;;;31.20;35.90;;;;;;5014356;28;20443;-73
2022/08/14 11:39:35;;;;;;;4.80;4.40;;;31.30;35.90;;;;;;5014443;28;20479;-75
2022/08/14 11:42:02;;;;;;;4.23;4.00;;;31.50;35.50;;;;;;5010653;28;21212;-71
2022/08/14 11:44:28;;;;;;;4.53;4.10;;;32.00;34.80;;;;;;5008288;28;20178;-72
2022/08/14 11:46:54;;;;;;;4.57;4.27;;;32.50;33.60;;;;;;5011163;28;20429;-73
2022/08/14 11:49:27;;;;;;;4.30;4.00;;;32.90;33.10;;;;;;5010323;28;20672;-72
2022/08/14 11:51:53;;;;;;;4.53;4.23;;;33.20;32.30;;;;;;5008357;28;20515;-72
2022/08/14 11:54:25;;;;;;;4.57;4.17;;;33.50;32.40;;;;;;5010856;28;20438;-72
2022/08/14 11:56:51;;;;;;;4.80;4.40;;;33.80;32.50;;;;;;5008227;28;20509;-73
2022/08/14 11:59:18;;;;;;;4.60;4.20;;;33.90;32.00;;;;;;5002982;28;21174;-72
2022/08/14 12:01:50;;;;;;;4.50;4.20;;;33.40;32.20;;;;;;5004430;28;20513;-72
2022/08/14 12:04:20;;;;;;;4.60;4.30;;;33.30;32.30;;;;;;5012306;28;20430;-73
2022/08/14 12:06:51;;;;;;;5.70;4.70;;;33.40;32.20;;;;;;5003556;28;20438;-71
2022/08/14 12:09:36;;;;;;;5.40;4.60;;;33.20;32.30;;;;;;5011506;28;20900;-71
2022/08/14 12:12:16;;;;;;;4.43;4.13;;;33.20;32.40;;;;;;5010993;28;20445;-73
2022/08/14 12:14:55;;;;;;;4.00;3.70;;;33.00;32.80;;;;;;5001821;28;20430;-72
2022/08/14 12:17:23;;;;;;;3.43;3.13;;;32.70;31.60;;;;;;5003618;28;20438;-72
2022/08/14 12:19:52;;;;;;;4.30;4.10;;;32.40;32.00;;;;;;5012701;28;20443;-72
2022/08/14 12:22:19;;;;;;;4.00;3.80;;;32.20;32.50;;;;;;5009428;28;20448;-72
2022/08/14 12:24:48;;;;;;;4.60;4.30;;;32.20;32.20;;;;;;5011912;28;20445;-73
2022/08/14 12:27:14;;;;;;;3.83;3.63;;;32.00;33.00;;;;;;5011403;28;20941;-73
2022/08/14 12:29:51;;;;;;;4.10;3.80;;;32.10;33.10;;;;;;5009097;28;20479;-73
2022/08/14 12:32:17;;;;;;;3.77;3.50;;;32.00;32.50;;;;;;5010051;28;20181;-73
2022/08/14 12:34:42;;;;;;;4.43;4.10;;;32.00;31.40;;;;;;5015943;28;20433;-74
2022/08/14 12:37:08;;;;;;;4.07;3.77;;;31.90;32.60;;;;;;5014851;28;20184;-72
2022/08/14 12:39:34;;;;;;;4.03;3.83;;;31.90;32.40;;;;;;5014362;28;20204;-72
2022/08/14 12:42:08;;;;;;;4.40;4.10;;;31.90;32.90;;;;;;5009897;28;20290;-72
2022/08/14 12:44:36;;;;;;;3.93;3.30;;;31.90;32.30;;;;;;5005764;28;20442;-71
2022/08/14 12:47:16;;;;;;;3.60;3.40;;;31.90;32.10;;;;;;5005769;28;20440;-71
2022/08/14 12:49:53;;;;;;;4.00;3.70;;;31.90;32.00;;;;;;4995432;28;20461;-71
2022/08/14 12:52:39;;;;;;;3.63;3.43;;;31.90;31.90;;;;;;5005923;28;21032;-71
2022/08/14 12:55:14;;;;;;;3.77;3.57;;;31.80;31.60;;;;;;5002718;28;20438;-71
2022/08/14 12:57:42;;;;;;;3.40;3.20;;;31.70;32.00;;;;;;5006442;28;20523;-71
2022/08/14 13:00:14;;;;;;;3.93;3.67;;;31.60;31.60;;;;;;5011286;28;20441;-71
2022/08/14 13:02:40;;;;;;;3.33;3.13;;;31.60;31.30;;;;;;5011674;28;21058;-71
2022/08/14 13:05:08;;;;;;;3.47;3.27;;;31.50;31.20;;;;;;5010923;28;20434;-71
2022/08/14 13:07:36;;;;;;;3.47;3.27;;;31.50;31.50;;;;;;5005173;28;20186;-71
2022/08/14 13:10:03;;;;;;;2.90;2.70;;;31.50;30.90;;;;;;5003633;28;20524;-71